Weather at Zhubi Jiao (Subi Reef) Air Base

Public forecast

Using degrees Celsius for public forecast. Weather courtesy of forecast.io.

Closest aviation weather report (METAR) to Zhubi Jiao (Subi Reef) Air Base

Closest report is Puerto Princesa International Airport / PAF Antonio Bautista Air Base, 285.9 nm (529.4 km) ESE.

2024/07/21 05:00 (retrieved 24 minutes ago)

RPVP 210500Z 18010KT 9999 FEW017CB SCT080 31/26 Q1008 RMK A2977 CB SE NW N

Closest aviation forecast (TAF) to Zhubi Jiao (Subi Reef) Air Base

Forecast is more than 12 hours old.

Closest forecast is Car Nicobar Air Force Base, 1,260.6 nm (2,334.7 km) W.

2024/07/20 12:00 (retrieved 17 hours ago)

TAF VOCX 200930Z 2012/2024 23010KT 6000 SCT015 BKN090 TEMPO 2016/2018 24010G20KT 5000 RA SCT015 FEW025TCU BKN090